Terminal Aerodrome Forecast
Issued by NWS

Home | Current Version | Previous Version | Text Only | Print | Product List | Glossary On
Versions: 1 2 3 4 5 6 7 8 9 10 11 12 13 14 15 16 17 18 19 20 21 22 23 24 25 26 27 28 29 30 31 32 33 34 35 36 37 38 39 40 41 42 43 44 45
000
FTUS45 KGJT 270522
TAFRIL
TAF
KRIL 270522Z 2706/2806 VRB03KT P6SM VCSH SCT050 BKN070
     FM271000 31004KT 5SM BR BKN030
     FM271400 VRB03KT P6SM SCT030 BKN080
     FM271900 31008KT P6SM VCSH BKN050
     FM280200 33006KT P6SM VCSH BKN050=

USA.gov is the U.S. government's official web portal to all federal, state and local government web resources and services.